sensor_id;sensor_type;location;lat;lon;timestamp;temperature;humidity
47618;DHT22;33336;36.728;-4.414;2023-01-24T00:02:30;11.30;82.90
47618;DHT22;33336;36.728;-4.414;2023-01-24T00:07:36;11.30;83.10
47618;DHT22;33336;36.728;-4.414;2023-01-24T00:12:39;11.30;83.30
47618;DHT22;33336;36.728;-4.414;2023-01-24T00:17:43;11.30;83.00
47618;DHT22;33336;36.728;-4.414;2023-01-24T00:22:46;11.40;83.30
47618;DHT22;33336;36.728;-4.414;2023-01-24T00:27:49;11.50;83.60
47618;DHT22;33336;36.728;-4.414;2023-01-24T00:32:54;11.20;83.40
47618;DHT22;33336;36.728;-4.414;2023-01-24T00:37:57;11.20;83.50
47618;DHT22;33336;36.728;-4.414;2023-01-24T00:43:00;11.20;83.10
47618;DHT22;33336;36.728;-4.414;2023-01-24T00:48:06;11.10;83.10
47618;DHT22;33336;36.728;-4.414;2023-01-24T00:53:09;10.80;84.00
47618;DHT22;33336;36.728;-4.414;2023-01-24T00:58:13;10.90;83.60
47618;DHT22;33336;36.728;-4.414;2023-01-24T01:03:19;11.00;83.30
47618;DHT22;33336;36.728;-4.414;2023-01-24T01:08:23;11.10;83.00
47618;DHT22;33336;36.728;-4.414;2023-01-24T01:13:26;11.20;83.10
47618;DHT22;33336;36.728;-4.414;2023-01-24T01:18:31;11.00;83.40
47618;DHT22;33336;36.728;-4.414;2023-01-24T01:23:34;10.90;83.90
47618;DHT22;33336;36.728;-4.414;2023-01-24T01:28:37;11.10;84.50
47618;DHT22;33336;36.728;-4.414;2023-01-24T01:33:43;11.10;83.60
47618;DHT22;33336;36.728;-4.414;2023-01-24T01:38:46;11.10;83.10
47618;DHT22;33336;36.728;-4.414;2023-01-24T01:43:49;11.00;84.10
47618;DHT22;33336;36.728;-4.414;2023-01-24T01:49:23;11.00;84.10
47618;DHT22;33336;36.728;-4.414;2023-01-24T01:54:29;11.00;84.70
47618;DHT22;33336;36.728;-4.414;2023-01-24T01:59:36;10.80;86.40
47618;DHT22;33336;36.728;-4.414;2023-01-24T02:04:45;10.40;88.00
47618;DHT22;33336;36.728;-4.414;2023-01-24T02:09:51;10.70;87.00
47618;DHT22;33336;36.728;-4.414;2023-01-24T02:14:57;10.80;86.20
47618;DHT22;33336;36.728;-4.414;2023-01-24T02:20:26;10.90;85.90
47618;DHT22;33336;36.728;-4.414;2023-01-24T02:25:35;10.80;87.00
47618;DHT22;33336;36.728;-4.414;2023-01-24T02:30:41;10.90;86.10
47618;DHT22;33336;36.728;-4.414;2023-01-24T02:35:45;10.70;86.40
47618;DHT22;33336;36.728;-4.414;2023-01-24T02:40:51;10.60;86.30
47618;DHT22;33336;36.728;-4.414;2023-01-24T02:45:56;10.80;84.90
47618;DHT22;33336;36.728;-4.414;2023-01-24T02:50:59;10.60;85.00
47618;DHT22;33336;36.728;-4.414;2023-01-24T02:56:20;10.40;85.70
47618;DHT22;33336;36.728;-4.414;2023-01-24T03:01:38;10.40;85.40
47618;DHT22;33336;36.728;-4.414;2023-01-24T03:06:41;10.50;85.20
47618;DHT22;33336;36.728;-4.414;2023-01-24T03:11:45;10.50;85.40
47618;DHT22;33336;36.728;-4.414;2023-01-24T03:16:49;10.30;86.50
47618;DHT22;33336;36.728;-4.414;2023-01-24T03:22:09;10.50;85.50
47618;DHT22;33336;36.728;-4.414;2023-01-24T03:27:30;10.20;84.80
47618;DHT22;33336;36.728;-4.414;2023-01-24T03:32:53;9.80;86.40
47618;DHT22;33336;36.728;-4.414;2023-01-24T03:38:17;9.50;88.50
47618;DHT22;33336;36.728;-4.414;2023-01-24T03:43:49;9.60;87.40
47618;DHT22;33336;36.728;-4.414;2023-01-24T03:48:53;9.80;86.40
47618;DHT22;33336;36.728;-4.414;2023-01-24T03:53:56;9.60;86.70
47618;DHT22;33336;36.728;-4.414;2023-01-24T03:58:59;9.80;85.60
47618;DHT22;33336;36.728;-4.414;2023-01-24T04:04:03;9.40;86.70
47618;DHT22;33336;36.728;-4.414;2023-01-24T04:09:06;9.00;88.10
47618;DHT22;33336;36.728;-4.414;2023-01-24T04:14:11;9.00;87.00
47618;DHT22;33336;36.728;-4.414;2023-01-24T04:19:15;9.10;86.50
47618;DHT22;33336;36.728;-4.414;2023-01-24T04:24:18;9.10;87.10
47618;DHT22;33336;36.728;-4.414;2023-01-24T04:29:21;9.10;87.70
47618;DHT22;33336;36.728;-4.414;2023-01-24T04:34:26;9.20;86.80
47618;DHT22;33336;36.728;-4.414;2023-01-24T04:39:29;9.10;86.60
47618;DHT22;33336;36.728;-4.414;2023-01-24T04:44:32;9.30;86.10
47618;DHT22;33336;36.728;-4.414;2023-01-24T04:49:37;9.30;85.70
47618;DHT22;33336;36.728;-4.414;2023-01-24T04:54:39;9.20;86.40
47618;DHT22;33336;36.728;-4.414;2023-01-24T04:59:42;9.30;86.60
47618;DHT22;33336;36.728;-4.414;2023-01-24T05:04:47;9.10;87.80
47618;DHT22;33336;36.728;-4.414;2023-01-24T05:09:50;9.10;87.60
47618;DHT22;33336;36.728;-4.414;2023-01-24T05:14:53;9.20;87.20
47618;DHT22;33336;36.728;-4.414;2023-01-24T05:19:57;9.30;86.90
47618;DHT22;33336;36.728;-4.414;2023-01-24T05:25:01;8.90;88.00
47618;DHT22;33336;36.728;-4.414;2023-01-24T05:30:06;8.70;88.50
47618;DHT22;33336;36.728;-4.414;2023-01-24T05:35:11;8.60;87.90
47618;DHT22;33336;36.728;-4.414;2023-01-24T05:40:15;8.70;87.80
47618;DHT22;33336;36.728;-4.414;2023-01-24T05:45:18;8.70;87.60
47618;DHT22;33336;36.728;-4.414;2023-01-24T05:50:23;8.80;86.70
47618;DHT22;33336;36.728;-4.414;2023-01-24T05:55:26;8.70;86.70
47618;DHT22;33336;36.728;-4.414;2023-01-24T06:00:29;8.50;87.80
47618;DHT22;33336;36.728;-4.414;2023-01-24T06:05:34;8.70;86.70
47618;DHT22;33336;36.728;-4.414;2023-01-24T06:10:37;8.80;86.40
47618;DHT22;33336;36.728;-4.414;2023-01-24T06:15:40;8.50;87.60
47618;DHT22;33336;36.728;-4.414;2023-01-24T06:20:45;8.60;88.40
47618;DHT22;33336;36.728;-4.414;2023-01-24T06:25:49;8.50;87.80
47618;DHT22;33336;36.728;-4.414;2023-01-24T06:31:01;8.40;87.50
47618;DHT22;33336;36.728;-4.414;2023-01-24T06:36:19;8.40;87.10
47618;DHT22;33336;36.728;-4.414;2023-01-24T06:41:26;8.30;86.70
47618;DHT22;33336;36.728;-4.414;2023-01-24T06:46:29;8.30;87.10
47618;DHT22;33336;36.728;-4.414;2023-01-24T06:51:34;7.90;89.40
47618;DHT22;33336;36.728;-4.414;2023-01-24T06:56:36;7.90;90.40
47618;DHT22;33336;36.728;-4.414;2023-01-24T07:01:39;8.10;89.80
47618;DHT22;33336;36.728;-4.414;2023-01-24T07:06:44;8.10;90.00
47618;DHT22;33336;36.728;-4.414;2023-01-24T07:11:47;8.30;89.50
47618;DHT22;33336;36.728;-4.414;2023-01-24T07:16:54;8.20;89.80
47618;DHT22;33336;36.728;-4.414;2023-01-24T07:21:59;8.10;90.30
47618;DHT22;33336;36.728;-4.414;2023-01-24T07:27:03;8.10;90.20
47618;DHT22;33336;36.728;-4.414;2023-01-24T07:32:08;8.00;90.20
47618;DHT22;33336;36.728;-4.414;2023-01-24T07:37:12;8.00;90.20
47618;DHT22;33336;36.728;-4.414;2023-01-24T07:42:15;7.80;90.50
47618;DHT22;33336;36.728;-4.414;2023-01-24T07:47:18;7.70;90.60
47618;DHT22;33336;36.728;-4.414;2023-01-24T07:52:23;7.90;90.10
47618;DHT22;33336;36.728;-4.414;2023-01-24T07:57:26;7.90;90.00
47618;DHT22;33336;36.728;-4.414;2023-01-24T08:02:29;7.80;90.30
47618;DHT22;33336;36.728;-4.414;2023-01-24T08:07:33;8.20;89.20
47618;DHT22;33336;36.728;-4.414;2023-01-24T08:12:36;8.40;88.80
47618;DHT22;33336;36.728;-4.414;2023-01-24T08:17:39;8.60;88.20
47618;DHT22;33336;36.728;-4.414;2023-01-24T08:22:44;8.70;87.70
47618;DHT22;33336;36.728;-4.414;2023-01-24T08:27:46;8.90;87.10
47618;DHT22;33336;36.728;-4.414;2023-01-24T08:32:58;8.90;86.60
47618;DHT22;33336;36.728;-4.414;2023-01-24T08:38:03;9.20;86.20
47618;DHT22;33336;36.728;-4.414;2023-01-24T08:43:06;9.30;86.20
47618;DHT22;33336;36.728;-4.414;2023-01-24T08:48:09;9.10;86.20
47618;DHT22;33336;36.728;-4.414;2023-01-24T08:53:13;9.30;87.00
47618;DHT22;33336;36.728;-4.414;2023-01-24T08:58:17;9.60;86.30
47618;DHT22;33336;36.728;-4.414;2023-01-24T09:03:20;9.80;85.20
47618;DHT22;33336;36.728;-4.414;2023-01-24T09:08:25;10.10;84.50
47618;DHT22;33336;36.728;-4.414;2023-01-24T09:13:28;10.10;84.30
47618;DHT22;33336;36.728;-4.414;2023-01-24T09:18:32;9.80;85.30
47618;DHT22;33336;36.728;-4.414;2023-01-24T09:23:37;10.30;84.40
47618;DHT22;33336;36.728;-4.414;2023-01-24T09:28:40;10.30;84.30
47618;DHT22;33336;36.728;-4.414;2023-01-24T09:33:43;10.40;84.00
47618;DHT22;33336;36.728;-4.414;2023-01-24T09:38:47;10.10;85.50
47618;DHT22;33336;36.728;-4.414;2023-01-24T09:43:52;10.60;84.40
47618;DHT22;33336;36.728;-4.414;2023-01-24T09:49:05;11.10;83.40
47618;DHT22;33336;36.728;-4.414;2023-01-24T09:54:16;11.20;83.20
47618;DHT22;33336;36.728;-4.414;2023-01-24T09:59:21;11.80;82.30
47618;DHT22;33336;36.728;-4.414;2023-01-24T10:04:29;12.10;81.50
47618;DHT22;33336;36.728;-4.414;2023-01-24T10:09:44;12.00;81.30
47618;DHT22;33336;36.728;-4.414;2023-01-24T10:14:54;12.30;80.50
47618;DHT22;33336;36.728;-4.414;2023-01-24T10:20:15;12.50;79.70
47618;DHT22;33336;36.728;-4.414;2023-01-24T10:25:24;12.80;79.70
47618;DHT22;33336;36.728;-4.414;2023-01-24T10:30:33;12.60;79.10
47618;DHT22;33336;36.728;-4.414;2023-01-24T10:35:46;12.80;79.50
47618;DHT22;33336;36.728;-4.414;2023-01-24T10:40:56;13.10;79.60
47618;DHT22;33336;36.728;-4.414;2023-01-24T10:46:13;13.00;79.90
47618;DHT22;33336;36.728;-4.414;2023-01-24T10:51:20;13.20;78.40
47618;DHT22;33336;36.728;-4.414;2023-01-24T10:56:24;13.40;78.20
47618;DHT22;33336;36.728;-4.414;2023-01-24T11:01:33;13.70;77.60
47618;DHT22;33336;36.728;-4.414;2023-01-24T11:06:37;13.90;76.50
47618;DHT22;33336;36.728;-4.414;2023-01-24T11:11:44;13.90;75.70
47618;DHT22;33336;36.728;-4.414;2023-01-24T11:16:50;13.90;75.90
47618;DHT22;33336;36.728;-4.414;2023-01-24T11:21:55;13.90;76.60
47618;DHT22;33336;36.728;-4.414;2023-01-24T11:27:04;13.80;76.60
47618;DHT22;33336;36.728;-4.414;2023-01-24T11:32:23;14.10;76.30
47618;DHT22;33336;36.728;-4.414;2023-01-24T11:37:56;14.20;76.20
47618;DHT22;33336;36.728;-4.414;2023-01-24T11:43:18;14.30;75.60
47618;DHT22;33336;36.728;-4.414;2023-01-24T11:48:25;14.70;75.00
47618;DHT22;33336;36.728;-4.414;2023-01-24T11:53:55;14.70;75.00
47618;DHT22;33336;36.728;-4.414;2023-01-24T12:04:56;15.00;74.50
47618;DHT22;33336;36.728;-4.414;2023-01-24T12:10:14;15.20;74.20
47618;DHT22;33336;36.728;-4.414;2023-01-24T12:15:31;15.40;73.60
47618;DHT22;33336;36.728;-4.414;2023-01-24T12:20:56;15.50;72.60
47618;DHT22;33336;36.728;-4.414;2023-01-24T12:26:05;15.40;72.00
47618;DHT22;33336;36.728;-4.414;2023-01-24T12:31:15;15.40;72.20
47618;DHT22;33336;36.728;-4.414;2023-01-24T12:36:29;14.90;70.40
47618;DHT22;33336;36.728;-4.414;2023-01-24T12:41:35;15.80;70.60
47618;DHT22;33336;36.728;-4.414;2023-01-24T12:46:46;16.60;69.20
47618;DHT22;33336;36.728;-4.414;2023-01-24T12:51:55;16.60;69.60
47618;DHT22;33336;36.728;-4.414;2023-01-24T12:57:14;16.30;69.90
47618;DHT22;33336;36.728;-4.414;2023-01-24T13:02:33;16.60;71.60
47618;DHT22;33336;36.728;-4.414;2023-01-24T13:07:43;16.80;71.50
47618;DHT22;33336;36.728;-4.414;2023-01-24T13:12:52;16.90;72.20
47618;DHT22;33336;36.728;-4.414;2023-01-24T13:18:07;17.40;72.50
47618;DHT22;33336;36.728;-4.414;2023-01-24T13:23:31;18.00;71.30
47618;DHT22;33336;36.728;-4.414;2023-01-24T13:28:46;18.50;69.90
47618;DHT22;33336;36.728;-4.414;2023-01-24T13:33:55;18.80;69.90
47618;DHT22;33336;36.728;-4.414;2023-01-24T13:38:59;18.60;68.80
47618;DHT22;33336;36.728;-4.414;2023-01-24T13:44:04;18.30;68.60
47618;DHT22;33336;36.728;-4.414;2023-01-24T13:49:38;18.40;70.70
47618;DHT22;33336;36.728;-4.414;2023-01-24T13:54:43;19.70;68.80
47618;DHT22;33336;36.728;-4.414;2023-01-24T14:05:48;20.40;68.50
47618;DHT22;33336;36.728;-4.414;2023-01-24T14:11:15;20.40;67.20
47618;DHT22;33336;36.728;-4.414;2023-01-24T14:22:02;22.20;66.10
47618;DHT22;33336;36.728;-4.414;2023-01-24T14:27:18;24.00;64.40
47618;DHT22;33336;36.728;-4.414;2023-01-24T14:32:25;24.40;62.80
47618;DHT22;33336;36.728;-4.414;2023-01-24T14:37:30;22.90;62.10
47618;DHT22;33336;36.728;-4.414;2023-01-24T14:42:33;22.80;62.50
47618;DHT22;33336;36.728;-4.414;2023-01-24T14:47:37;22.10;62.90
47618;DHT22;33336;36.728;-4.414;2023-01-24T14:52:41;22.30;63.60
47618;DHT22;33336;36.728;-4.414;2023-01-24T14:57:44;22.60;63.20
47618;DHT22;33336;36.728;-4.414;2023-01-24T15:02:52;22.20;63.10
47618;DHT22;33336;36.728;-4.414;2023-01-24T15:07:57;21.70;64.50
47618;DHT22;33336;36.728;-4.414;2023-01-24T15:13:03;21.30;64.80
47618;DHT22;33336;36.728;-4.414;2023-01-24T15:18:18;21.10;65.20
47618;DHT22;33336;36.728;-4.414;2023-01-24T15:23:31;20.60;64.90
47618;DHT22;33336;36.728;-4.414;2023-01-24T15:28:34;20.20;65.40
47618;DHT22;33336;36.728;-4.414;2023-01-24T15:33:42;20.00;65.80
47618;DHT22;33336;36.728;-4.414;2023-01-24T15:38:48;19.20;67.40
47618;DHT22;33336;36.728;-4.414;2023-01-24T15:44:01;19.00;68.70
47618;DHT22;33336;36.728;-4.414;2023-01-24T15:54:41;18.60;70.70
47618;DHT22;33336;36.728;-4.414;2023-01-24T15:59:45;18.00;72.20
47618;DHT22;33336;36.728;-4.414;2023-01-24T16:04:49;17.80;73.20
47618;DHT22;33336;36.728;-4.414;2023-01-24T16:09:53;17.90;72.40
47618;DHT22;33336;36.728;-4.414;2023-01-24T16:14:57;17.50;72.50
47618;DHT22;33336;36.728;-4.414;2023-01-24T16:20:00;17.30;73.30
47618;DHT22;33336;36.728;-4.414;2023-01-24T16:25:06;17.10;74.90
47618;DHT22;33336;36.728;-4.414;2023-01-24T16:30:15;17.00;74.40
47618;DHT22;33336;36.728;-4.414;2023-01-24T16:35:18;16.80;75.00
47618;DHT22;33336;36.728;-4.414;2023-01-24T16:40:23;16.50;76.30
47618;DHT22;33336;36.728;-4.414;2023-01-24T16:45:26;16.10;77.90
47618;DHT22;33336;36.728;-4.414;2023-01-24T16:50:29;16.00;78.50
47618;DHT22;33336;36.728;-4.414;2023-01-24T16:55:35;15.90;79.10
47618;DHT22;33336;36.728;-4.414;2023-01-24T17:00:39;15.60;80.70
47618;DHT22;33336;36.728;-4.414;2023-01-24T17:05:42;15.50;81.30
47618;DHT22;33336;36.728;-4.414;2023-01-24T17:10:46;15.20;81.50
47618;DHT22;33336;36.728;-4.414;2023-01-24T17:15:50;15.10;83.80
47618;DHT22;33336;36.728;-4.414;2023-01-24T17:20:53;14.90;85.80
47618;DHT22;33336;36.728;-4.414;2023-01-24T17:26:01;14.60;88.80
47618;DHT22;33336;36.728;-4.414;2023-01-24T17:41:59;14.20;90.00
47618;DHT22;33336;36.728;-4.414;2023-01-24T17:47:03;13.20;93.20
47618;DHT22;33336;36.728;-4.414;2023-01-24T17:52:07;13.30;92.30
47618;DHT22;33336;36.728;-4.414;2023-01-24T17:57:14;13.20;92.30
47618;DHT22;33336;36.728;-4.414;2023-01-24T18:02:17;13.20;92.40
47618;DHT22;33336;36.728;-4.414;2023-01-24T18:07:21;13.10;93.00
47618;DHT22;33336;36.728;-4.414;2023-01-24T18:12:29;12.70;93.60
47618;DHT22;33336;36.728;-4.414;2023-01-24T18:17:32;12.50;93.70
47618;DHT22;33336;36.728;-4.414;2023-01-24T18:22:39;12.50;93.40
47618;DHT22;33336;36.728;-4.414;2023-01-24T18:27:44;12.20;93.50
47618;DHT22;33336;36.728;-4.414;2023-01-24T18:32:47;12.00;94.50
47618;DHT22;33336;36.728;-4.414;2023-01-24T18:37:49;12.00;94.90
47618;DHT22;33336;36.728;-4.414;2023-01-24T18:42:54;11.90;95.30
47618;DHT22;33336;36.728;-4.414;2023-01-24T18:47:57;11.90;94.90
47618;DHT22;33336;36.728;-4.414;2023-01-24T18:53:00;11.70;95.10
47618;DHT22;33336;36.728;-4.414;2023-01-24T18:58:05;11.80;94.90
47618;DHT22;33336;36.728;-4.414;2023-01-24T19:03:08;11.50;94.50
47618;DHT22;33336;36.728;-4.414;2023-01-24T19:08:11;11.50;93.70
47618;DHT22;33336;36.728;-4.414;2023-01-24T19:13:16;11.30;94.10
47618;DHT22;33336;36.728;-4.414;2023-01-24T19:18:19;11.20;94.00
47618;DHT22;33336;36.728;-4.414;2023-01-24T19:23:22;11.10;93.70
47618;DHT22;33336;36.728;-4.414;2023-01-24T19:28:27;11.20;93.60
47618;DHT22;33336;36.728;-4.414;2023-01-24T19:33:30;10.80;93.30
47618;DHT22;33336;36.728;-4.414;2023-01-24T19:38:33;11.00;92.80
47618;DHT22;33336;36.728;-4.414;2023-01-24T19:43:38;11.00;92.70
47618;DHT22;33336;36.728;-4.414;2023-01-24T19:48:41;11.10;92.30
47618;DHT22;33336;36.728;-4.414;2023-01-24T19:53:47;11.20;92.40
47618;DHT22;33336;36.728;-4.414;2023-01-24T19:58:53;11.20;93.10
47618;DHT22;33336;36.728;-4.414;2023-01-24T20:03:56;11.30;92.60
47618;DHT22;33336;36.728;-4.414;2023-01-24T20:09:01;11.20;92.40
47618;DHT22;33336;36.728;-4.414;2023-01-24T20:14:06;11.00;92.00
47618;DHT22;33336;36.728;-4.414;2023-01-24T20:19:09;10.80;91.60
47618;DHT22;33336;36.728;-4.414;2023-01-24T20:24:12;10.80;92.00
47618;DHT22;33336;36.728;-4.414;2023-01-24T20:29:17;10.70;91.80
47618;DHT22;33336;36.728;-4.414;2023-01-24T20:34:20;10.80;92.30
47618;DHT22;33336;36.728;-4.414;2023-01-24T20:39:23;10.70;93.00
47618;DHT22;33336;36.728;-4.414;2023-01-24T20:44:28;10.80;93.20
47618;DHT22;33336;36.728;-4.414;2023-01-24T20:49:31;10.80;93.40
47618;DHT22;33336;36.728;-4.414;2023-01-24T20:54:34;10.80;93.20
47618;DHT22;33336;36.728;-4.414;2023-01-24T20:59:38;10.80;93.40
47618;DHT22;33336;36.728;-4.414;2023-01-24T21:04:41;10.50;93.90
47618;DHT22;33336;36.728;-4.414;2023-01-24T21:09:44;10.60;93.90
47618;DHT22;33336;36.728;-4.414;2023-01-24T21:14:49;10.40;93.90
47618;DHT22;33336;36.728;-4.414;2023-01-24T21:19:51;10.20;93.40
47618;DHT22;33336;36.728;-4.414;2023-01-24T21:24:55;10.30;92.40
47618;DHT22;33336;36.728;-4.414;2023-01-24T21:30:00;10.30;91.70
47618;DHT22;33336;36.728;-4.414;2023-01-24T21:35:04;9.90;92.00
47618;DHT22;33336;36.728;-4.414;2023-01-24T21:40:08;10.20;91.80
47618;DHT22;33336;36.728;-4.414;2023-01-24T21:45:14;10.20;92.60
47618;DHT22;33336;36.728;-4.414;2023-01-24T21:50:17;10.10;92.10
47618;DHT22;33336;36.728;-4.414;2023-01-24T21:55:20;10.20;92.20
47618;DHT22;33336;36.728;-4.414;2023-01-24T22:00:24;9.90;92.20
47618;DHT22;33336;36.728;-4.414;2023-01-24T22:05:28;9.90;92.50
47618;DHT22;33336;36.728;-4.414;2023-01-24T22:10:31;9.80;91.80
47618;DHT22;33336;36.728;-4.414;2023-01-24T22:15:36;9.70;92.10
47618;DHT22;33336;36.728;-4.414;2023-01-24T22:20:40;9.90;91.90
47618;DHT22;33336;36.728;-4.414;2023-01-24T22:25:49;10.00;91.90
47618;DHT22;33336;36.728;-4.414;2023-01-24T22:30:56;10.00;91.80
47618;DHT22;33336;36.728;-4.414;2023-01-24T22:36:00;10.10;91.70
47618;DHT22;33336;36.728;-4.414;2023-01-24T22:41:03;10.00;91.40
47618;DHT22;33336;36.728;-4.414;2023-01-24T22:46:09;9.60;91.60
47618;DHT22;33336;36.728;-4.414;2023-01-24T22:51:12;9.50;91.90
47618;DHT22;33336;36.728;-4.414;2023-01-24T22:56:15;9.40;92.10
47618;DHT22;33336;36.728;-4.414;2023-01-24T23:01:19;9.20;92.50
47618;DHT22;33336;36.728;-4.414;2023-01-24T23:06:22;9.60;92.20
47618;DHT22;33336;36.728;-4.414;2023-01-24T23:11:25;9.60;91.60
47618;DHT22;33336;36.728;-4.414;2023-01-24T23:16:33;9.40;92.00
47618;DHT22;33336;36.728;-4.414;2023-01-24T23:21:37;9.40;92.30
47618;DHT22;33336;36.728;-4.414;2023-01-24T23:26:40;9.30;92.60
47618;DHT22;33336;36.728;-4.414;2023-01-24T23:31:45;9.50;92.30
47618;DHT22;33336;36.728;-4.414;2023-01-24T23:36:48;9.40;92.70
47618;DHT22;33336;36.728;-4.414;2023-01-24T23:41:51;9.10;92.30
47618;DHT22;33336;36.728;-4.414;2023-01-24T23:46:57;9.20;92.30
47618;DHT22;33336;36.728;-4.414;2023-01-24T23:52:00;9.30;92.10
47618;DHT22;33336;36.728;-4.414;2023-01-24T23:57:03;9.20;92.50
